Latest Weather Observations for Nhill Aerodrome

IDV60801

Issued at 9:31 pm EST Monday 25 May 2015 (issued every 30 minutes, with the page automatically refreshed every 10 minutes)

About weather observations | Map of weather stations | Latest weather observations for VIC | Other Formats
Station Details ID: 078015 Name: NHILL AERODROME Lat: -36.31 Lon: 141.65 Height: 138.9 m
Data from the previous 72 hours. | See also: Recent months at Nhill Aerodrome
Date/Time
EST
Temp
°C
App
Temp
°C
Dew
Point
Rel
Hum
%
Delta-T
°C
Wind Press
QNH
hPa
Press
MSL
hPa
Rain
since 9 am
mm
Dir
 
Spd
km/h
Gust
km/h
Spd
kts
Gust
kts
25/09:30pm 10.5 6.5 5.1 69 2.5 ENE 15 17 8 9 1028.9 1028.9 0.0
25/09:00pm 11.0 7.3 4.7 65 2.8 ENE 13 17 7 9 1029.1 1029.1 0.0
25/08:30pm 11.2 7.5 4.7 64 3.0 ENE 13 15 7 8 1029.0 1029.0 0.0
25/08:00pm 11.4 7.8 4.8 64 3.0 NE 13 15 7 8 1029.2 1029.2 0.0
25/07:30pm 11.8 8.6 5.0 63 3.1 NE 11 15 6 8 1029.2 1029.2 0.0
25/07:00pm 12.0 8.8 5.2 63 3.1 NE 11 13 6 7 1028.9 1028.9 0.0
25/06:30pm 11.8 9.7 5.7 66 2.9 NNE 6 11 3 6 1028.8 1028.8 0.0
25/06:00pm 12.5 10.8 5.7 63 3.2 NNE 4 6 2 3 1028.4 1028.4 0.0
25/05:30pm 14.4 12.3 5.7 56 4.2 NNE 6 7 3 4 1028.0 1028.1 0.0
25/05:00pm 16.2 14.0 6.3 52 4.8 NE 7 13 4 7 1027.6 1027.7 0.0
25/04:30pm 17.0 14.2 7.1 52 5.0 NE 11 15 6 8 1027.7 1027.8 0.0
25/04:00pm 17.3 15.2 6.5 49 5.3 N 7 11 4 6 1027.7 1027.8 0.0
25/03:30pm 17.4 15.5 6.6 49 5.4 N 6 9 3 5 1027.4 1027.5 0.0
25/03:00pm 17.2 15.0 6.4 49 5.3 N 7 11 4 6 1027.6 1027.7 0.0
25/02:30pm 17.7 15.4 7.4 51 5.2 NW 9 13 5 7 1027.8 1027.9 0.0
25/02:00pm 16.7 14.8 7.4 54 4.6 N 7 13 4 7 1028.1 1028.2 0.0
25/01:30pm 17.1 15.2 7.5 53 4.9 NW 7 13 4 7 1028.5 1028.5 0.0
25/01:00pm 16.7 14.4 7.6 55 4.6 NNW 9 15 5 8 1028.8 1028.8 0.0
25/12:30pm 15.5 13.7 7.8 60 3.9 NNE 7 9 4 5 1029.3 1029.3 0.0
25/12:00pm 14.8 13.0 7.8 63 3.5 N 7 13 4 7 1029.9 1030.0 0.0
25/11:30am 13.8 11.6 7.8 67 3.0 NNE 9 13 5 7 1030.5 1030.6 0.0
25/11:00am 12.3 10.5 7.8 74 2.2 NNE 7 13 4 7 1030.8 1030.9 0.0
25/10:30am 11.6 9.3 7.5 76 2.0 NE 9 13 5 7 1030.9 1031.0 0.0
25/10:00am 10.9 8.3 7.8 81 1.5 NE 11 13 6 7 1030.8 1030.9 0.0
25/09:30am 9.9 7.7 7.8 87 1.0 ENE 9 13 5 7 1030.8 1030.9 0.0
25/09:00am 9.0 6.0 7.9 93 0.5 ENE 13 15 7 8 1030.8 1030.9 0.0
25/08:30am 8.4 5.5 8.0 97 0.2 ENE 13 15 7 8 1030.7 1030.8 0.0
25/08:00am 7.6 4.9 7.5 99 0.0 E 11 13 6 7 1030.4 1030.5 0.0
25/07:30am 7.7 4.7 7.6 99 0.0 ENE 13 17 7 9 1030.3 1030.4 0.0
25/07:00am 7.4 5.1 7.3 99 0.0 E 9 11 5 6 1030.3 1030.4 0.0
25/06:30am 7.2 4.8 7.1 99 0.0 ENE 9 11 5 6 1029.9 1030.0 0.0
25/06:00am 7.1 5.3 7.0 99 0.0 E 6 9 3 5 1029.8 1029.9 0.0
25/05:30am 7.7 6.3 7.4 98 0.1 SSE 4 7 2 4 1029.8 1029.9 0.0
25/05:00am 8.5 6.5 7.1 91 0.7 E 7 13 4 7 1029.6 1029.6 0.0
25/04:30am 8.8 5.7 7.3 90 0.7 ENE 13 15 7 8 1029.2 1029.2 0.0
25/04:00am 8.0 5.4 7.9 99 0.0 ENE 11 13 6 7 1029.3 1029.3 0.0
25/03:30am 7.3 5.3 7.2 99 0.0 SE 7 9 4 5 1029.6 1029.6 0.0
25/03:00am 7.2 4.8 7.1 99 0.0 SSE 9 11 5 6 1029.5 1029.5 0.0
25/02:30am 6.7 4.6 6.6 99 0.0 SSW 7 9 4 5 1029.6 1029.6 0.0
25/02:00am 8.5 6.4 6.8 89 0.8 NE 7 9 4 5 1029.4 1029.4 0.0
25/01:30am 8.8 6.5 7.6 92 0.6 NE 9 13 5 7 1029.2 1029.2 0.0
25/01:00am 7.6 4.9 7.5 99 0.0 ESE 11 13 6 7 1028.8 1028.8 0.0
25/12:30am 6.7 4.6 6.6 99 0.0 SSE 7 7 4 4 1029.4 1029.4 0.0
25/12:00am 8.3 7.2 6.8 90 0.7 SSW 2 7 1 4 1029.8 1029.9 0.0
 
Date/Time
EST
Temp
°C
App
Temp
°C
Dew
Point
Rel
Hum
%
Delta-T
°C
Wind Press
QNH
hPa
Press
MSL
hPa
Rain
since 9 am
mm
Dir
 
Spd
km/h
Gust
km/h
Spd
kts
Gust
kts
24/11:30pm 8.7 7.9 6.7 87 0.9 CALM 0 0 0 0 1030.1 1030.2 0.0
24/11:00pm 8.3 6.8 6.6 89 0.8 NW 4 9 2 5 1030.1 1030.2 0.0
24/10:30pm 9.2 7.9 6.1 81 1.4 N 2 6 1 3 1030.1 1030.2 0.0
24/10:00pm 10.3 8.6 5.9 74 2.0 N 4 7 2 4 1030.0 1030.1 0.0
24/09:30pm 11.2 9.2 6.1 71 2.4 NNE 6 9 3 5 1030.1 1030.2 0.0
24/09:00pm 11.3 8.7 6.0 70 2.5 NNE 9 13 5 7 1030.1 1030.2 0.0
24/08:30pm 10.7 8.5 6.1 73 2.2 N 7 11 4 6 1030.0 1030.1 0.0
24/08:00pm 10.2 7.7 6.4 77 1.8 NE 9 13 5 7 1029.8 1029.9 0.0
24/07:30pm 9.5 7.5 6.4 81 1.4 NNW 6 7 3 4 1030.0 1030.1 0.0
24/07:00pm 10.6 9.3 6.0 73 2.1 NNW 2 7 1 4 1030.0 1030.1 0.0
24/06:30pm 11.4 10.4 5.7 68 2.7 CALM 0 0 0 0 1029.6 1029.6 0.0
24/06:00pm 11.4 10.6 6.3 71 2.4 CALM 0 0 0 0 1029.4 1029.4 0.0
24/05:30pm 12.3 11.3 5.5 63 3.2 CALM 0 0 0 0 1029.2 1029.2 0.0
24/05:00pm 13.2 12.1 5.1 58 3.8 CALM 0 6 0 3 1028.9 1028.9 0.0
24/04:30pm 14.3 13.3 5.4 55 4.2 CALM 0 0 0 0 1029.0 1029.0 0.0
24/04:00pm 15.3 12.6 5.5 52 4.7 NNW 9 15 5 8 1028.9 1028.9 0.0
24/03:30pm 15.3 12.1 5.2 51 4.8 NNW 11 15 6 8 1028.9 1028.9 0.0
24/03:00pm 14.4 11.2 5.0 53 4.4 NNW 11 15 6 8 1028.9 1028.9 0.0
24/02:30pm 14.3 11.8 6.4 59 3.8 N 9 15 5 8 1029.1 1029.1 0.0
24/02:00pm 14.2 12.1 6.6 60 3.7 N 7 11 4 6 1029.0 1029.0 0.0
24/01:30pm 13.6 11.1 6.5 62 3.4 N 9 13 5 7 1029.4 1029.4 0.0
24/01:00pm 13.4 11.0 7.0 65 3.1 NNE 9 13 5 7 1029.6 1029.6 0.0
24/12:30pm 12.6 10.1 6.6 67 2.9 N 9 13 5 7 1030.0 1030.1 0.0
24/12:00pm 11.7 9.8 7.4 75 2.1 N 7 13 4 7 1030.5 1030.6 0.0
24/11:30am 9.7 7.8 7.6 87 1.0 NNE 7 11 4 6 1030.7 1030.8 0.0
24/11:00am 9.0 6.7 7.5 90 0.7 NE 9 17 5 9 1031.0 1031.1 0.0
24/10:30am 8.5 6.1 7.0 90 0.7 NE 9 19 5 10 1030.6 1030.7 0.0
24/10:00am 7.0 4.2 6.9 99 0.0 NE 11 15 6 8 1030.8 1030.9 0.0
24/09:30am 6.0 2.6 5.9 99 0.0 NE 13 19 7 10 1030.9 1031.0 0.0
24/09:00am 5.3 1.8 5.3 100 0.0 NE 13 17 7 9 1030.8 1030.9 0.2
24/08:30am 3.9 0.5 3.9 100 0.0 ENE 11 19 6 10 1030.6 1030.7 0.2
24/08:00am 3.1 -0.5 3.1 100 0.0 ENE 11 15 6 8 1030.5 1030.6 0.2
24/07:30am 3.1 -0.5 3.1 100 0.0 E 11 11 6 6 1030.4 1030.5 0.2
24/07:00am 2.2 -1.5 2.2 100 0.0 E 11 13 6 7 1030.3 1030.4 0.2
24/06:30am 1.8 -0.7 1.8 100 0.0 ENE 4 6 2 3 1030.3 1030.4 0.2
24/06:00am 1.7 -1.2 1.6 99 0.0 ENE 6 7 3 4 1029.9 1030.0 0.2
24/05:30am 4.0 1.0 4.0 100 0.0 ENE 9 13 5 7 1029.7 1029.7 0.2
24/05:00am 5.2 1.6 5.2 100 0.0 ENE 13 17 7 9 1029.5 1029.5 0.2
24/04:30am 3.9 0.9 3.9 100 0.0 ENE 9 11 5 6 1029.2 1029.2 0.0
24/04:00am 3.7 0.6 3.7 100 0.0 ENE 9 11 5 6 1029.1 1029.1 0.0
24/03:30am 3.4 0.8 3.3 99 0.0 E 6 7 3 4 1029.3 1029.3 0.0
24/03:00am 3.6 -0.3 3.5 99 0.0 E 13 15 7 8 1029.3 1029.3 0.0
24/02:30am 4.0 0.6 3.9 99 0.0 E 11 11 6 6 1029.4 1029.4 0.0
24/02:00am 3.5 -0.4 3.5 100 0.0 E 13 15 7 8 1029.1 1029.1 0.0
24/01:30am 2.8 0.5 2.7 99 0.0 SE 4 9 2 5 1029.3 1029.3 0.0
24/01:00am 2.6 0.3 2.5 99 0.0 SE 4 6 2 3 1029.8 1029.9 0.0
24/12:30am 3.4 0.6 3.3 99 0.0 SE 7 7 4 4 1029.6 1029.6 0.0
24/12:00am 4.0 2.7 3.9 99 0.0 CALM 0 0 0 0 1029.7 1029.7 0.0
 
Date/Time
EST
Temp
°C
App
Temp
°C
Dew
Point
Rel
Hum
%
Delta-T
°C
Wind Press
QNH
hPa
Press
MSL
hPa
Rain
since 9 am
mm
Dir
 
Spd
km/h
Gust
km/h
Spd
kts
Gust
kts
23/11:30pm 5.4 3.2 5.3 99 0.0 SE 6 7 3 4 1029.8 1029.9 0.0
23/11:00pm 4.4 2.4 4.3 99 0.0 SE 4 7 2 4 1029.9 1030.0 0.0
23/10:30pm 4.7 2.6 4.1 96 0.3 SE 4 7 2 4 1030.2 1030.3 0.0
23/10:00pm 6.0 3.6 4.3 89 0.7 SE 6 7 3 4 1030.3 1030.4 0.0
23/09:30pm 7.3 4.8 4.8 84 1.1 SE 7 7 4 4 1030.1 1030.2 0.0
23/09:00pm 7.5 5.0 4.6 82 1.3 SE 7 9 4 5 1030.2 1030.3 0.0
23/08:30pm 7.6 5.1 4.9 83 1.2 SSE 7 9 4 5 1030.4 1030.5 0.0
23/08:00pm 8.2 5.7 4.8 79 1.5 SSE 7 9 4 5 1030.7 1030.8 0.0
23/07:30pm 8.1 5.8 5.0 81 1.4 S 6 9 3 5 1030.6 1030.7 0.0
23/07:00pm 9.2 8.0 4.8 74 2.0 CALM 0 0 0 0 1030.4 1030.5 0.0
23/06:30pm 9.7 7.4 4.7 71 2.3 W 6 7 3 4 1030.2 1030.3 0.0
23/06:00pm 10.9 8.4 4.8 66 2.8 W 7 9 4 5 1030.1 1030.2 0.0
23/05:30pm 11.9 9.4 4.6 61 3.3 W 7 9 4 5 1029.9 1030.0 0.0
23/05:00pm 13.1 11.5 4.5 56 3.9 W 2 6 1 3 1029.9 1030.0 0.0
23/04:30pm 13.2 10.8 4.4 55 4.1 W 6 7 3 4 1030.0 1030.1 0.0
23/04:00pm 13.9 12.2 4.2 52 4.4 S 2 6 1 3 1030.1 1030.2 0.0
23/03:30pm 13.8 11.8 4.4 53 4.4 S 4 7 2 4 1030.0 1030.1 0.0
23/03:00pm 14.0 11.6 4.3 52 4.5 SE 6 11 3 6 1030.1 1030.2 0.0
23/02:30pm 13.2 10.8 4.4 55 4.1 SSW 6 11 3 6 1030.3 1030.4 0.0
23/02:00pm 13.0 10.7 4.7 57 3.8 S 6 11 3 6 1030.6 1030.7 0.0
23/01:30pm 12.8 10.6 5.2 60 3.6 SSE 6 13 3 7 1030.8 1030.9 0.0
23/01:00pm 12.4 10.0 5.3 62 3.3 ENE 7 11 4 6 1031.1 1031.2 0.0
23/12:30pm 11.7 8.9 5.3 65 3.0 ESE 9 13 5 7 1031.4 1031.5 0.0
23/12:00pm 10.8 8.5 5.6 70 2.4 SSE 7 11 4 6 1031.9 1032.0 0.0
23/11:30am 10.3 8.6 5.9 74 2.0 WNW 4 7 2 4 1032.6 1032.7 0.0
23/11:00am 9.3 7.1 6.0 80 1.5 S 7 11 4 6 1032.8 1032.9 0.0
23/10:30am 7.6 5.4 6.2 91 0.6 SSE 7 11 4 6 1032.9 1033.0 0.0
23/10:00am 6.1 3.5 6.1 100 0.0 S 9 9 5 5 1033.0 1033.1 0.0
23/09:30am 4.5 1.2 4.5 100 0.0 S 11 15 6 8 1032.9 1033.0 0.0
23/09:00am 2.4 -0.3 2.4 100 0.0 S 6 9 3 5 1033.1 1033.2 0.2
23/08:30am 0.7 -1.6 0.7 100 0.0 SSE 2 6 1 3 1032.8 1032.9 0.2
23/08:00am 0.5 -1.4 0.5 100 0.0 CALM 0 6 0 3 1032.6 1032.7 0.2
23/07:30am 1.1 -2.0 1.1 100 0.0 SSE 7 9 4 5 1032.2 1032.3 0.2
23/07:00am 1.0 -1.6 1.0 100 0.0 SSE 4 9 2 5 1032.2 1032.3 0.2
23/06:30am 0.5 -2.6 0.4 99 0.0 SSE 6 7 3 4 1032.1 1032.2 0.2
23/06:00am 0.6 -2.4 0.5 99 0.0 SSE 6 9 3 5 1031.9 1032.0 0.2
23/05:30am 1.0 -0.8 0.9 99 0.0 CALM 0 0 0 0 1031.5 1031.6 0.2
23/05:00am 1.7 0.0 1.6 99 0.0 CALM 0 0 0 0 1031.4 1031.5 0.2
23/04:30am 2.0 0.3 1.9 99 0.0 CALM 0 0 0 0 1031.3 1031.4 0.2
23/04:00am 2.0 0.3 1.9 99 0.0 CALM 0 4 0 2 1031.5 1031.6 0.2
23/03:30am 1.9 -0.6 1.8 99 0.0 SSE 4 7 2 4 1031.5 1031.6 0.2
23/03:00am 2.2 -0.2 2.1 99 0.0 SSE 4 6 2 3 1031.6 1031.7 0.2
23/02:30am 2.0 -0.8 1.9 99 0.0 SSE 6 7 3 4 1031.6 1031.7 0.2
23/02:00am 2.6 -0.7 2.5 99 0.0 SSE 9 11 5 6 1031.5 1031.6 0.2
23/01:30am 2.6 -1.1 2.5 99 0.0 SSE 11 11 6 6 1031.5 1031.6 0.2
23/01:00am 3.3 -0.6 3.2 99 0.0 SE 13 15 7 8 1031.6 1031.7 0.2
23/12:30am 3.7 0.2 3.6 99 0.0 SE 11 15 6 8 1031.8 1031.9 0.2
23/12:00am 4.1 1.1 4.0 99 0.0 SE 9 13 5 7 1031.8 1031.9 0.2
 
Date/Time
EST
Temp
°C
App
Temp
°C
Dew
Point
Rel
Hum
%
Delta-T
°C
Wind Press
QNH
hPa
Press
MSL
hPa
Rain
since 9 am
mm
Dir
 
Spd
km/h
Gust
km/h
Spd
kts
Gust
kts
22/11:30pm 4.2 0.4 4.1 99 0.0 SSE 13 13 7 7 1031.8 1031.9 0.2
22/11:00pm 4.5 1.6 4.4 99 0.0 SSE 9 11 5 6 1031.6 1031.7 0.2
22/10:30pm 5.0 1.4 4.9 99 0.0 SE 13 15 7 8 1031.7 1031.8 0.2
22/10:00pm 4.9 1.2 4.5 97 0.2 SSE 13 15 7 8 1031.8 1031.9 0.2

Other Formats:

Comma delimited format used in spreadsheet applications
http://www.bom.gov.au/fwo/IDV60801/IDV60801.94827.axf

JavaScript Object Notation format (JSON) in row-major order
http://www.bom.gov.au/fwo/IDV60801/IDV60801.94827.json